»·PEaware :: SWA210 KPHX-KSLC

SWA210 :: KPHX-KSLC

FLIGHT INFORMATION

Flight Status: Arrived
Operator:
Southwest Airlines
More flights by this operator :: More flights under this callsign
Pilot: Anonymous 16446 (16446)
Aircraft: BOEING 737-200
(B732)
More flights by this aircraft type
Origin: KPHX Phoenix Sky Harbor Intl
United States
Destination: KSLC Salt Lake City Intl
United States
More flights between these airports :: More routes between these airports
Route: +FFU
File this flight plan on PilotEdge
Remarks:
Altitude:
(Current/Filed)
25,000ft
Speed:
(Current/Filed)
450kts
Departed: 20-Jan-18 01:02 PM
Arrived: 20-Jan-18 02:43 PM
Distance/Time
Traveled:
441nm/1:41
Distance/Time
To Go:
Arrived

Flight Plot

Page will automatically refresh every two minutes.

Flight plan parsing failed; only flown route is shown


Map Options




Map Legend


Flown Route
Filed Route
Departure Airport
Arrival Airport
Navaid (VOR, NDB)
Fix

Horizontal Profiles

Position Reports

Time Latitude Longitude Heading Altitude Ground
Speed
20-Jan-18 12:38 33.434068 -111.997283 89 1118ft 0kts
20-Jan-18 12:39 33.434068 -111.997283 89 1118ft 0kts
20-Jan-18 12:40 33.434068 -111.997283 89 1118ft 0kts
20-Jan-18 12:41 33.434068 -111.997283 89 1118ft 0kts
20-Jan-18 12:42 33.434068 -111.997283 89 1118ft 0kts
20-Jan-18 12:43 33.434068 -111.997283 89 1118ft 0kts
20-Jan-18 12:44 33.434229 -111.997826 175 1118ft 0kts
20-Jan-18 12:45 33.434305 -111.997820 179 1118ft 0kts
20-Jan-18 12:46 33.434305 -111.997820 179 1118ft 0kts
20-Jan-18 12:47 33.434305 -111.997820 179 1118ft 0kts
20-Jan-18 12:48 33.434305 -111.997820 179 1118ft 0kts
20-Jan-18 12:49 33.434305 -111.997820 179 1118ft 0kts
20-Jan-18 12:50 33.434305 -111.997820 179 1118ft 0kts
20-Jan-18 12:51 33.434305 -111.997820 179 1118ft 0kts
20-Jan-18 12:52 33.434279 -111.997820 179 1118ft 2kts
20-Jan-18 12:53 33.433488 -111.997813 179 1118ft 0kts
20-Jan-18 12:54 33.433488 -111.997813 179 1118ft 0kts
20-Jan-18 12:55 33.433488 -111.997813 179 1118ft 0kts
20-Jan-18 12:56 33.432845 -111.997385 99 1118ft 6kts
20-Jan-18 12:57 33.432846 -111.995817 88 1118ft 8kts
20-Jan-18 12:58 33.432836 -111.993731 105 1118ft 4kts
20-Jan-18 12:59 33.432697 -111.993518 148 1118ft 0kts
20-Jan-18 13:00 33.432063 -111.993458 180 1118ft 3kts
20-Jan-18 13:01 33.432061 -111.993458 180 1118ft 0kts
20-Jan-18 13:02 33.432061 -111.993458 180 1118ft 0kts
20-Jan-18 13:03 33.432061 -111.993458 180 1118ft 0kts
20-Jan-18 13:04 33.432061 -111.993458 180 1118ft 0kts
20-Jan-18 13:05 33.432061 -111.993458 180 1118ft 0kts
20-Jan-18 13:06 33.430998 -111.993645 276 1118ft 2kts
20-Jan-18 13:07 33.431031 -111.993992 270 1118ft 0kts
20-Jan-18 13:08 33.431017 -111.998183 269 1118ft 84kts
20-Jan-18 13:09 33.431745 -112.056565 272 2494ft 229kts
20-Jan-18 13:10 33.431883 -112.134124 272 6522ft 234kts
20-Jan-18 13:11 33.480095 -112.179120 19 9098ft 313kts
20-Jan-18 13:12 33.563277 -112.141363 8 11804ft 330kts
20-Jan-18 13:13 33.655450 -112.118806 9 14255ft 350kts
20-Jan-18 13:14 33.752599 -112.091516 10 16474ft 367kts
20-Jan-18 13:15 33.854846 -112.061679 10 18084ft 396kts
20-Jan-18 13:16 33.963572 -112.029559 9 19895ft 409kts
20-Jan-18 13:17 34.078456 -111.995593 10 20547ft 451kts
20-Jan-18 13:18 34.199481 -111.959771 10 21426ft 471kts
20-Jan-18 13:19 34.327531 -111.921642 10 22543ft 481kts
20-Jan-18 13:20 34.458414 -111.882502 9 23548ft 491kts
20-Jan-18 13:21 34.590887 -111.842728 9 24460ft 499kts
20-Jan-18 13:22 34.725735 -111.796458 27 24960ft 520kts
20-Jan-18 13:23 34.839999 -111.685907 39 24965ft 527kts
20-Jan-18 13:24 34.952180 -111.573053 35 24951ft 521kts
20-Jan-18 13:25 35.083990 -111.552182 327 24948ft 468kts
20-Jan-18 13:26 35.159951 -111.649001 308 24924ft 437kts
20-Jan-18 13:27 35.274072 -111.714341 313 24931ft 440kts
20-Jan-18 13:28 35.371527 -111.802908 320 24930ft 447kts
20-Jan-18 13:29 35.483153 -111.872237 325 24912ft 452kts
20-Jan-18 13:30 35.596672 -111.937698 325 24924ft 458kts
20-Jan-18 13:31 35.713429 -112.004357 325 25625ft 466kts
20-Jan-18 13:32 35.831304 -112.071883 325 25927ft 469kts
20-Jan-18 13:33 35.950440 -112.137633 337 25904ft 481kts
20-Jan-18 13:34 36.083594 -112.162118 346 25930ft 489kts
20-Jan-18 13:35 36.215911 -112.175702 348 25915ft 489kts
20-Jan-18 13:36 36.350903 -112.187475 349 25916ft 487kts
20-Jan-18 13:37 36.485614 -112.199031 347 25918ft 485kts
20-Jan-18 13:38 36.579545 -112.283293 282 25943ft 398kts
20-Jan-18 13:39 36.646308 -112.394885 327 25923ft 457kts
20-Jan-18 13:40 36.778079 -112.395757 354 25933ft 485kts
20-Jan-18 13:41 36.913520 -112.387255 358 25907ft 490kts
20-Jan-18 13:42 37.049517 -112.373304 359 25887ft 493kts
20-Jan-18 13:43 37.185084 -112.358678 0 25841ft 494kts
20-Jan-18 13:44 37.321732 -112.343733 0 25839ft 494kts
20-Jan-18 13:45 37.458309 -112.328784 0 25836ft 494kts
20-Jan-18 13:46 37.594855 -112.313787 0 25839ft 494kts
20-Jan-18 13:47 37.731196 -112.305096 345 25852ft 484kts
20-Jan-18 13:48 37.864402 -112.328791 349 25844ft 488kts
20-Jan-18 13:49 37.999260 -112.344939 348 25846ft 488kts
20-Jan-18 13:50 38.133322 -112.362671 347 25831ft 489kts
20-Jan-18 13:51 38.267630 -112.380646 347 25854ft 487kts
20-Jan-18 13:52 38.401742 -112.398750 347 25910ft 485kts
20-Jan-18 13:53 38.535766 -112.416944 348 25919ft 485kts
20-Jan-18 13:54 38.669124 -112.437458 346 25929ft 485kts
20-Jan-18 13:55 38.803003 -112.458348 347 25941ft 486kts
20-Jan-18 13:56 38.937093 -112.478615 347 25954ft 487kts
20-Jan-18 13:57 39.071752 -112.498275 348 25954ft 488kts
20-Jan-18 13:58 39.204922 -112.506307 356 25938ft 492kts
20-Jan-18 13:59 39.341634 -112.498767 9 25951ft 496kts
20-Jan-18 14:00 39.446894 -112.398498 73 25956ft 478kts
20-Jan-18 14:01 39.427616 -112.253847 151 25967ft 388kts
20-Jan-18 14:02 39.336257 -112.270980 225 25954ft 353kts
20-Jan-18 14:03 39.346721 -112.399495 300 25957ft 428kts
20-Jan-18 14:04 39.459129 -112.456918 11 25980ft 486kts
20-Jan-18 14:05 39.590540 -112.412923 12 25950ft 491kts
20-Jan-18 14:06 39.649522 -112.286979 124 25972ft 415kts
20-Jan-18 14:07 39.561520 -112.256956 190 25941ft 350kts
20-Jan-18 14:08 39.474499 -112.292758 245 25998ft 362kts
20-Jan-18 14:09 39.555364 -112.365696 18 25899ft 484kts
20-Jan-18 14:10 39.587136 -112.231417 140 25952ft 389kts
20-Jan-18 14:11 39.496453 -112.223978 186 25957ft 345kts
20-Jan-18 14:12 39.400320 -112.235834 192 25946ft 348kts
20-Jan-18 14:13 39.373527 -112.333706 298 25967ft 421kts
20-Jan-18 14:14 39.487310 -112.386504 10 25954ft 485kts
20-Jan-18 14:15 39.619457 -112.352753 9 25972ft 488kts
20-Jan-18 14:16 39.684347 -112.223882 117 25982ft 481kts
20-Jan-18 14:17 39.583178 -112.179012 197 25928ft 407kts
20-Jan-18 14:18 39.472689 -112.207846 202 25920ft 402kts
20-Jan-18 14:19 39.366309 -112.251524 203 25919ft 401kts
20-Jan-18 14:20 39.319518 -112.359819 282 25927ft 388kts
20-Jan-18 14:21 39.405982 -112.443755 345 25927ft 438kts
20-Jan-18 14:22 39.507905 -112.424978 26 25913ft 469kts
20-Jan-18 14:23 39.561868 -112.251655 100 25945ft 473kts
20-Jan-18 14:24 39.547146 -112.110527 101 25517ft 473kts
20-Jan-18 14:25 39.558423 -111.920233 51 23476ft 455kts
20-Jan-18 14:26 39.643393 -111.863696 351 21764ft 403kts
20-Jan-18 14:27 39.751567 -111.880021 350 19721ft 385kts
20-Jan-18 14:28 39.856027 -111.892810 351 17612ft 372kts
20-Jan-18 14:29 39.958015 -111.904404 352 16989ft 372kts
20-Jan-18 14:30 40.062084 -111.916257 352 16987ft 382kts
20-Jan-18 14:31 40.156779 -111.927116 355 17061ft 387kts
20-Jan-18 14:32 40.242273 -111.982603 291 16839ft 320kts
20-Jan-18 14:33 40.260217 -112.090539 281 14492ft 309kts
20-Jan-18 14:34 40.234848 -112.184269 201 12233ft 298kts
20-Jan-18 14:35 40.169797 -112.141975 105 10262ft 290kts
20-Jan-18 14:36 40.208070 -112.060960 31 9290ft 283kts
20-Jan-18 14:37 40.265868 -111.997506 77 9073ft 272kts
20-Jan-18 14:38 40.255130 -111.897702 101 9063ft 285kts
20-Jan-18 14:39 40.240946 -111.794077 86 9043ft 291kts
20-Jan-18 14:40 40.297846 -111.740947 342 9069ft 287kts
20-Jan-18 14:41 40.368287 -111.789765 330 9059ft 287kts
20-Jan-18 14:42 40.438011 -111.840357 331 9059ft 287kts
20-Jan-18 14:43 40.505027 -111.896316 321 9060ft 287kts
20-Jan-18 14:44 40.563667 -111.955707 341 8543ft 245kts
20-Jan-18 14:45 40.626458 -111.957039 357 7273ft 204kts
20-Jan-18 14:46 40.675256 -111.961688 355 6202ft 154kts
20-Jan-18 14:47 40.715114 -111.966227 355 5418ft 146kts
20-Jan-18 14:48 40.755499 -111.970907 355 4608ft 136kts
20-Jan-18 14:49 40.787058 -111.974970 314 4205ft 24kts
20-Jan-18 14:50 40.787697 -111.975792 324 4205ft 0kts
20-Jan-18 14:51 40.787697 -111.975792 323 4205ft 0kts
20-Jan-18 14:52 40.788519 -111.977846 263 4205ft 0kts
20-Jan-18 14:53 40.788519 -111.977846 263 4205ft 0kts
20-Jan-18 14:54 40.788519 -111.977846 263 4205ft 0kts
20-Jan-18 14:55 40.788519 -111.977846 263 4205ft 0kts
20-Jan-18 14:56 40.788519 -111.977846 263 4205ft 0kts
20-Jan-18 14:57 40.788519 -111.977846 263 4205ft 0kts
20-Jan-18 14:58 40.788519 -111.977846 263 4205ft 0kts
20-Jan-18 14:59 40.788519 -111.977846 263 4205ft 0kts
20-Jan-18 15:00 40.788519 -111.977846 263 4205ft 0kts
20-Jan-18 15:01 40.788519 -111.977846 263 4205ft 0kts
20-Jan-18 15:02 40.788519 -111.977846 263 4205ft 0kts
20-Jan-18 15:03 40.788519 -111.977846 263 4205ft 0kts

Navigation Log

Ident Type
Flight plan parsing failed, navigation log unavailable